sensor_id;sensor_type;location;lat;lon;timestamp;pressure;altitude;pressure_sealevel;temperature;humidity
25238;BME280;13185;50.872;5.306;2023-03-30T00:02:22;100391.34;;;13.34;74.94
25238;BME280;13185;50.872;5.306;2023-03-30T00:04:50;100378.47;;;13.38;75.02
25238;BME280;13185;50.872;5.306;2023-03-30T00:07:17;100366.69;;;13.39;74.72
25238;BME280;13185;50.872;5.306;2023-03-30T00:09:42;100379.91;;;13.42;74.96
25238;BME280;13185;50.872;5.306;2023-03-30T00:12:09;100372.44;;;13.45;74.73
25238;BME280;13185;50.872;5.306;2023-03-30T00:14:35;100359.81;;;13.46;74.80
25238;BME280;13185;50.872;5.306;2023-03-30T00:17:03;100354.16;;;13.49;74.38
25238;BME280;13185;50.872;5.306;2023-03-30T00:19:29;100353.16;;;13.50;74.60
25238;BME280;13185;50.872;5.306;2023-03-30T00:21:55;100342.41;;;13.50;74.32
25238;BME280;13185;50.872;5.306;2023-03-30T00:24:21;100346.94;;;13.49;74.47
25238;BME280;13185;50.872;5.306;2023-03-30T00:26:46;100344.38;;;13.48;74.79
25238;BME280;13185;50.872;5.306;2023-03-30T00:29:12;100342.53;;;13.48;74.66
25238;BME280;13185;50.872;5.306;2023-03-30T00:31:37;100346.94;;;13.49;74.91
25238;BME280;13185;50.872;5.306;2023-03-30T00:34:03;100348.38;;;13.53;74.80
25238;BME280;13185;50.872;5.306;2023-03-30T00:36:28;100349.69;;;13.59;74.37
25238;BME280;13185;50.872;5.306;2023-03-30T00:38:55;100348.56;;;13.62;74.64
25238;BME280;13185;50.872;5.306;2023-03-30T00:41:21;100342.06;;;13.64;74.55
25238;BME280;13185;50.872;5.306;2023-03-30T00:44:02;100338.41;;;13.65;74.37
25238;BME280;13185;50.872;5.306;2023-03-30T00:46:29;100329.19;;;13.68;74.16
25238;BME280;13185;50.872;5.306;2023-03-30T00:48:58;100332.88;;;13.67;74.12
25238;BME280;13185;50.872;5.306;2023-03-30T00:51:25;100338.41;;;13.65;74.23
25238;BME280;13185;50.872;5.306;2023-03-30T00:53:55;100335.97;;;13.62;74.56
25238;BME280;13185;50.872;5.306;2023-03-30T00:56:26;100348.13;;;13.56;74.57
25238;BME280;13185;50.872;5.306;2023-03-30T00:58:53;100342.13;;;13.53;74.87
25238;BME280;13185;50.872;5.306;2023-03-30T01:01:20;100336.16;;;13.49;74.95
25238;BME280;13185;50.872;5.306;2023-03-30T01:03:53;100340.81;;;13.47;74.89
25238;BME280;13185;50.872;5.306;2023-03-30T01:06:20;100333.72;;;13.46;75.00
25238;BME280;13185;50.872;5.306;2023-03-30T01:08:50;100346.22;;;13.47;74.99
25238;BME280;13185;50.872;5.306;2023-03-30T01:11:16;100336.44;;;13.46;75.32
25238;BME280;13185;50.872;5.306;2023-03-30T01:13:45;100329.44;;;13.44;75.05
25238;BME280;13185;50.872;5.306;2023-03-30T01:29:19;100324.72;;;13.57;73.87
25238;BME280;13185;50.872;5.306;2023-03-30T01:43:19;100313.97;;;13.57;72.58
25238;BME280;13185;50.872;5.306;2023-03-30T01:45:58;100310.53;;;13.55;72.81
25238;BME280;13185;50.872;5.306;2023-03-30T01:50:55;100296.09;;;13.56;72.74
25238;BME280;13185;50.872;5.306;2023-03-30T01:56:26;100284.56;;;13.54;72.99
25238;BME280;13185;50.872;5.306;2023-03-30T01:59:03;100302.19;;;13.58;72.81
25238;BME280;13185;50.872;5.306;2023-03-30T02:01:33;100296.09;;;13.56;73.19
25238;BME280;13185;50.872;5.306;2023-03-30T02:04:01;100287.38;;;13.52;73.41
25238;BME280;13185;50.872;5.306;2023-03-30T02:06:33;100286.53;;;13.52;73.67
25238;BME280;13185;50.872;5.306;2023-03-30T02:09:05;100275.75;;;13.52;73.69
25238;BME280;13185;50.872;5.306;2023-03-30T02:11:32;100279.31;;;13.52;74.27
25238;BME280;13185;50.872;5.306;2023-03-30T02:14:01;100281.28;;;13.50;74.43
25238;BME280;13185;50.872;5.306;2023-03-30T02:16:38;100267.97;;;13.49;74.40
25238;BME280;13185;50.872;5.306;2023-03-30T02:19:06;100265.69;;;13.44;75.08
25238;BME280;13185;50.872;5.306;2023-03-30T02:21:32;100259.69;;;13.41;75.23
25238;BME280;13185;50.872;5.306;2023-03-30T02:24:02;100266.47;;;13.35;75.20
25238;BME280;13185;50.872;5.306;2023-03-30T02:26:29;100257.06;;;13.29;75.80
25238;BME280;13185;50.872;5.306;2023-03-30T02:28:55;100260.28;;;13.23;75.98
25238;BME280;13185;50.872;5.306;2023-03-30T02:31:21;100268.59;;;13.20;75.96
25238;BME280;13185;50.872;5.306;2023-03-30T02:34:03;100278.91;;;13.15;76.26
25238;BME280;13185;50.872;5.306;2023-03-30T02:44:47;100274.34;;;12.95;77.49
25238;BME280;13185;50.872;5.306;2023-03-30T02:47:39;100276.41;;;12.91;77.69
25238;BME280;13185;50.872;5.306;2023-03-30T02:55:46;100285.16;;;12.84;78.54
25238;BME280;13185;50.872;5.306;2023-03-30T02:59:04;100292.38;;;12.83;79.04
25238;BME280;13185;50.872;5.306;2023-03-30T03:01:43;100276.22;;;12.83;78.83
25238;BME280;13185;50.872;5.306;2023-03-30T03:04:16;100268.88;;;12.85;79.25
25238;BME280;13185;50.872;5.306;2023-03-30T03:07:17;100281.34;;;12.86;79.35
25238;BME280;13185;50.872;5.306;2023-03-30T03:09:44;100275.81;;;12.88;79.63
25238;BME280;13185;50.872;5.306;2023-03-30T03:12:10;100272.13;;;12.89;79.69
25238;BME280;13185;50.872;5.306;2023-03-30T03:14:37;100271.28;;;12.88;79.71
25238;BME280;13185;50.872;5.306;2023-03-30T03:17:03;100272.13;;;12.89;79.70
25238;BME280;13185;50.872;5.306;2023-03-30T03:19:34;100264.06;;;12.89;80.00
25238;BME280;13185;50.872;5.306;2023-03-30T03:22:00;100270.44;;;12.88;80.15
25238;BME280;13185;50.872;5.306;2023-03-30T03:24:33;100261.50;;;12.87;80.06
25238;BME280;13185;50.872;5.306;2023-03-30T03:27:01;100273.25;;;12.86;80.08
25238;BME280;13185;50.872;5.306;2023-03-30T03:29:31;100268.34;;;12.91;79.94
25238;BME280;13185;50.872;5.306;2023-03-30T03:31:58;100277.75;;;12.97;79.67
25238;BME280;13185;50.872;5.306;2023-03-30T03:34:28;100275.72;;;13.10;78.77
25238;BME280;13185;50.872;5.306;2023-03-30T03:37:00;100272.53;;;13.16;78.73
25238;BME280;13185;50.872;5.306;2023-03-30T03:39:27;100280.22;;;13.21;78.82
25238;BME280;13185;50.872;5.306;2023-03-30T03:42:05;100278.16;;;13.24;78.51
25238;BME280;13185;50.872;5.306;2023-03-30T03:44:33;100272.50;;;13.27;78.19
25238;BME280;13185;50.872;5.306;2023-03-30T03:46:59;100281.28;;;13.29;77.95
25238;BME280;13185;50.872;5.306;2023-03-30T03:49:24;100283.72;;;13.33;77.86
25238;BME280;13185;50.872;5.306;2023-03-30T03:51:50;100281.78;;;13.35;77.76
25238;BME280;13185;50.872;5.306;2023-03-30T03:54:16;100293.38;;;13.35;77.48
25238;BME280;13185;50.872;5.306;2023-03-30T03:56:46;100289.44;;;13.39;77.18
25238;BME280;13185;50.872;5.306;2023-03-30T03:59:11;100275.13;;;13.39;77.30
25238;BME280;13185;50.872;5.306;2023-03-30T04:01:38;100274.28;;;13.38;77.07
25238;BME280;13185;50.872;5.306;2023-03-30T04:04:06;100273.41;;;13.38;77.18
25238;BME280;13185;50.872;5.306;2023-03-30T04:06:32;100270.72;;;13.38;77.10
25238;BME280;13185;50.872;5.306;2023-03-30T04:08:58;100259.81;;;13.39;77.12
25238;BME280;13185;50.872;5.306;2023-03-30T04:11:45;100259.81;;;13.39;77.30
25238;BME280;13185;50.872;5.306;2023-03-30T04:14:29;100263.22;;;13.41;76.67
25238;BME280;13185;50.872;5.306;2023-03-30T04:17:11;100260.28;;;13.44;76.02
25238;BME280;13185;50.872;5.306;2023-03-30T04:20:00;100258.16;;;13.48;75.45
25238;BME280;13185;50.872;5.306;2023-03-30T04:22:56;100263.28;;;13.51;75.48
25238;BME280;13185;50.872;5.306;2023-03-30T04:26:06;100265.13;;;13.50;75.45
25238;BME280;13185;50.872;5.306;2023-03-30T04:28:53;100267.09;;;13.48;75.89
25238;BME280;13185;50.872;5.306;2023-03-30T04:31:36;100253.06;;;13.45;76.06
25238;BME280;13185;50.872;5.306;2023-03-30T04:34:21;100258.69;;;13.42;76.60
25238;BME280;13185;50.872;5.306;2023-03-30T04:37:09;100254.09;;;13.33;76.81
25238;BME280;13185;50.872;5.306;2023-03-30T04:40:02;100257.59;;;13.23;77.29
25238;BME280;13185;50.872;5.306;2023-03-30T04:42:57;100268.25;;;13.14;77.63
25238;BME280;13185;50.872;5.306;2023-03-30T04:45:52;100271.59;;;13.06;78.34
25238;BME280;13185;50.872;5.306;2023-03-30T04:48:34;100268.41;;;13.01;78.42
25238;BME280;13185;50.872;5.306;2023-03-30T04:51:02;100274.19;;;12.96;78.97
25238;BME280;13185;50.872;5.306;2023-03-30T04:53:42;100277.25;;;12.92;79.23
25238;BME280;13185;50.872;5.306;2023-03-30T04:56:43;100268.88;;;12.85;79.28
25238;BME280;13185;50.872;5.306;2023-03-30T04:59:28;100269.13;;;12.82;79.67
25238;BME280;13185;50.872;5.306;2023-03-30T05:02:12;100267.53;;;12.80;79.89
25238;BME280;13185;50.872;5.306;2023-03-30T05:04:57;100278.28;;;12.80;80.13
25238;BME280;13185;50.872;5.306;2023-03-30T05:07:45;100285.00;;;12.85;79.90
25238;BME280;13185;50.872;5.306;2023-03-30T05:10:37;100280.34;;;12.87;79.74
25238;BME280;13185;50.872;5.306;2023-03-30T05:13:24;100269.19;;;12.92;79.35
25238;BME280;13185;50.872;5.306;2023-03-30T05:16:03;100266.25;;;12.95;79.47
25238;BME280;13185;50.872;5.306;2023-03-30T05:18:47;100270.53;;;12.97;79.17
25238;BME280;13185;50.872;5.306;2023-03-30T05:21:20;100273.94;;;12.99;78.99
25238;BME280;13185;50.872;5.306;2023-03-30T05:24:03;100266.47;;;13.03;78.93
25238;BME280;13185;50.872;5.306;2023-03-30T05:26:45;100283.47;;;13.04;78.58
25238;BME280;13185;50.872;5.306;2023-03-30T05:29:31;100283.34;;;13.05;78.61
25238;BME280;13185;50.872;5.306;2023-03-30T05:32:23;100285.06;;;13.06;78.38
25238;BME280;13185;50.872;5.306;2023-03-30T05:35:07;100271.72;;;13.05;78.54
25238;BME280;13185;50.872;5.306;2023-03-30T05:38:11;100277.69;;;13.08;78.28
25238;BME280;13185;50.872;5.306;2023-03-30T05:41:02;100281.97;;;13.11;77.96
25238;BME280;13185;50.872;5.306;2023-03-30T05:44:04;100285.63;;;13.10;78.39
25238;BME280;13185;50.872;5.306;2023-03-30T05:46:33;100283.66;;;13.12;78.14
25238;BME280;13185;50.872;5.306;2023-03-30T05:49:17;100281.97;;;13.11;78.25
25238;BME280;13185;50.872;5.306;2023-03-30T05:52:09;100290.75;;;13.13;77.98
25238;BME280;13185;50.872;5.306;2023-03-30T05:54:59;100297.75;;;13.15;78.01
25238;BME280;13185;50.872;5.306;2023-03-30T05:57:35;100293.06;;;13.17;78.11
25238;BME280;13185;50.872;5.306;2023-03-30T06:00:24;100289.53;;;13.17;78.30
25238;BME280;13185;50.872;5.306;2023-03-30T06:03:01;100309.38;;;13.16;78.54
25238;BME280;13185;50.872;5.306;2023-03-30T06:05:31;100312.06;;;13.16;78.54
25238;BME280;13185;50.872;5.306;2023-03-30T06:07:58;100315.59;;;13.16;78.74
25238;BME280;13185;50.872;5.306;2023-03-30T06:10:25;100314.75;;;13.16;79.09
25238;BME280;13185;50.872;5.306;2023-03-30T06:12:52;100331.88;;;13.15;79.08
25238;BME280;13185;50.872;5.306;2023-03-30T06:15:38;100359.03;;;13.12;80.10
25238;BME280;13185;50.872;5.306;2023-03-30T06:18:06;100365.13;;;12.93;86.58
25238;BME280;13185;50.872;5.306;2023-03-30T06:20:35;100367.59;;;12.74;90.34
25238;BME280;13185;50.872;5.306;2023-03-30T06:23:00;100362.72;;;12.56;90.85
25238;BME280;13185;50.872;5.306;2023-03-30T06:25:26;100371.78;;;12.44;93.37
25238;BME280;13185;50.872;5.306;2023-03-30T06:27:54;100379.22;;;12.29;95.07
25238;BME280;13185;50.872;5.306;2023-03-30T06:30:20;100367.28;;;12.22;95.17
25238;BME280;13185;50.872;5.306;2023-03-30T06:32:50;100366.53;;;12.20;95.97
25238;BME280;13185;50.872;5.306;2023-03-30T06:35:22;100357.72;;;12.18;96.45
25238;BME280;13185;50.872;5.306;2023-03-30T06:37:49;100369.72;;;12.14;96.59
25238;BME280;13185;50.872;5.306;2023-03-30T06:40:15;100369.84;;;12.12;96.50
25238;BME280;13185;50.872;5.306;2023-03-30T06:42:46;100381.69;;;12.10;97.35
25238;BME280;13185;50.872;5.306;2023-03-30T06:45:27;100360.41;;;12.07;98.14
25238;BME280;13185;50.872;5.306;2023-03-30T06:47:53;100384.13;;;12.02;98.41
25238;BME280;13185;50.872;5.306;2023-03-30T06:50:20;100384.59;;;11.96;99.21
25238;BME280;13185;50.872;5.306;2023-03-30T06:52:52;100378.34;;;11.95;100.00
25238;BME280;13185;50.872;5.306;2023-03-30T06:55:19;100374.69;;;11.96;100.00
25238;BME280;13185;50.872;5.306;2023-03-30T06:57:46;100388.84;;;11.98;100.00
25238;BME280;13185;50.872;5.306;2023-03-30T07:00:12;100380.56;;;12.01;100.00
25238;BME280;13185;50.872;5.306;2023-03-30T07:02:41;100384.72;;;12.05;100.00
25238;BME280;13185;50.872;5.306;2023-03-30T07:05:25;100385.22;;;12.10;100.00
25238;BME280;13185;50.872;5.306;2023-03-30T07:08:06;100383.41;;;12.11;100.00
25238;BME280;13185;50.872;5.306;2023-03-30T07:10:32;100394.88;;;12.13;100.00
25238;BME280;13185;50.872;5.306;2023-03-30T07:13:01;100395.84;;;12.12;100.00
25238;BME280;13185;50.872;5.306;2023-03-30T07:15:28;100396.09;;;12.09;100.00
25238;BME280;13185;50.872;5.306;2023-03-30T07:17:54;100391.59;;;12.09;100.00
25238;BME280;13185;50.872;5.306;2023-03-30T07:20:20;100400.50;;;12.10;100.00
25238;BME280;13185;50.872;5.306;2023-03-30T07:23:00;100397.69;;;12.11;99.82
25238;BME280;13185;50.872;5.306;2023-03-30T07:25:26;100394.38;;;12.19;99.11
25238;BME280;13185;50.872;5.306;2023-03-30T07:27:52;100401.25;;;12.23;96.25
25238;BME280;13185;50.872;5.306;2023-03-30T07:30:19;100400.13;;;12.26;96.07
25238;BME280;13185;50.872;5.306;2023-03-30T07:32:47;100408.94;;;12.28;96.18
25238;BME280;13185;50.872;5.306;2023-03-30T07:35:15;100413.97;;;12.21;94.69
25238;BME280;13185;50.872;5.306;2023-03-30T07:37:41;100440.44;;;12.14;95.07
25238;BME280;13185;50.872;5.306;2023-03-30T07:40:07;100440.56;;;12.02;97.86
25238;BME280;13185;50.872;5.306;2023-03-30T07:42:33;100454.09;;;11.89;99.29
25238;BME280;13185;50.872;5.306;2023-03-30T07:44:59;100451.00;;;11.82;100.00
25238;BME280;13185;50.872;5.306;2023-03-30T07:47:26;100444.69;;;11.71;100.00
25238;BME280;13185;50.872;5.306;2023-03-30T07:49:52;100439.91;;;11.63;100.00
25238;BME280;13185;50.872;5.306;2023-03-30T07:52:17;100454.16;;;11.52;100.00
25238;BME280;13185;50.872;5.306;2023-03-30T07:54:49;100447.50;;;11.45;100.00
25238;BME280;13185;50.872;5.306;2023-03-30T07:57:17;100436.38;;;11.39;100.00
25238;BME280;13185;50.872;5.306;2023-03-30T07:59:42;100441.66;;;11.40;100.00
25238;BME280;13185;50.872;5.306;2023-03-30T08:02:22;100441.88;;;11.37;100.00
25238;BME280;13185;50.872;5.306;2023-03-30T08:04:51;100445.41;;;11.38;100.00
25238;BME280;13185;50.872;5.306;2023-03-30T08:07:24;100452.16;;;11.43;100.00
25238;BME280;13185;50.872;5.306;2023-03-30T08:09:57;100458.16;;;11.47;100.00
25238;BME280;13185;50.872;5.306;2023-03-30T08:12:23;100455.63;;;11.56;100.00
25238;BME280;13185;50.872;5.306;2023-03-30T08:14:48;100464.06;;;11.63;100.00
25238;BME280;13185;50.872;5.306;2023-03-30T08:17:14;100467.38;;;11.67;100.00
25238;BME280;13185;50.872;5.306;2023-03-30T08:19:39;100475.09;;;11.71;100.00
25238;BME280;13185;50.872;5.306;2023-03-30T08:22:05;100475.84;;;11.73;100.00
25238;BME280;13185;50.872;5.306;2023-03-30T08:24:30;100469.63;;;11.73;100.00
25238;BME280;13185;50.872;5.306;2023-03-30T08:26:56;100470.47;;;11.73;100.00
25238;BME280;13185;50.872;5.306;2023-03-30T08:29:21;100476.09;;;11.70;100.00
25238;BME280;13185;50.872;5.306;2023-03-30T08:31:47;100479.75;;;11.69;100.00
25238;BME280;13185;50.872;5.306;2023-03-30T08:34:12;100480.94;;;11.65;100.00
25238;BME280;13185;50.872;5.306;2023-03-30T08:36:38;100494.47;;;11.64;100.00
25238;BME280;13185;50.872;5.306;2023-03-30T08:39:04;100487.63;;;11.60;100.00
25238;BME280;13185;50.872;5.306;2023-03-30T08:41:43;100484.09;;;11.59;100.00
25238;BME280;13185;50.872;5.306;2023-03-30T08:46:53;100503.09;;;11.56;100.00
25238;BME280;13185;50.872;5.306;2023-03-30T08:49:19;100500.53;;;11.54;100.00
25238;BME280;13185;50.872;5.306;2023-03-30T08:51:47;100511.41;;;11.53;100.00
25238;BME280;13185;50.872;5.306;2023-03-30T08:54:21;100516.03;;;11.51;100.00
25238;BME280;13185;50.872;5.306;2023-03-30T08:57:02;100509.81;;;11.50;100.00
25238;BME280;13185;50.872;5.306;2023-03-30T08:59:44;100523.13;;;11.52;100.00
25238;BME280;13185;50.872;5.306;2023-03-30T09:02:27;100514.44;;;11.48;100.00
25238;BME280;13185;50.872;5.306;2023-03-30T09:05:05;100535.06;;;11.48;100.00
25238;BME280;13185;50.872;5.306;2023-03-30T09:07:44;100517.44;;;11.44;100.00
25238;BME280;13185;50.872;5.306;2023-03-30T09:10:12;100522.06;;;11.42;100.00
25238;BME280;13185;50.872;5.306;2023-03-30T09:17:42;100535.84;;;11.37;100.00
25238;BME280;13185;50.872;5.306;2023-03-30T09:22:46;100538.06;;;11.43;100.00
25238;BME280;13185;50.872;5.306;2023-03-30T09:27:46;100536.78;;;11.49;100.00
25238;BME280;13185;50.872;5.306;2023-03-30T09:30:22;100528.84;;;11.47;100.00
25238;BME280;13185;50.872;5.306;2023-03-30T09:33:05;100537.09;;;11.44;100.00
25238;BME280;13185;50.872;5.306;2023-03-30T09:35:42;100530.88;;;11.44;100.00
25238;BME280;13185;50.872;5.306;2023-03-30T09:38:15;100528.19;;;11.44;100.00
25238;BME280;13185;50.872;5.306;2023-03-30T09:43:33;100534.88;;;11.62;100.00
25238;BME280;13185;50.872;5.306;2023-03-30T09:46:04;100543.97;;;11.72;100.00
25238;BME280;13185;50.872;5.306;2023-03-30T09:48:39;100546.88;;;11.82;100.00
25238;BME280;13185;50.872;5.306;2023-03-30T09:51:26;100547.91;;;11.92;100.00
25238;BME280;13185;50.872;5.306;2023-03-30T09:54:01;100552.91;;;11.97;100.00
25238;BME280;13185;50.872;5.306;2023-03-30T09:56:37;100540.38;;;12.08;100.00
25238;BME280;13185;50.872;5.306;2023-03-30T09:59:29;100540.72;;;12.04;100.00
25238;BME280;13185;50.872;5.306;2023-03-30T10:07:22;100549.97;;;12.24;100.00
25238;BME280;13185;50.872;5.306;2023-03-30T10:09:49;100539.63;;;12.30;100.00
25238;BME280;13185;50.872;5.306;2023-03-30T10:12:15;100544.25;;;12.39;100.00
25238;BME280;13185;50.872;5.306;2023-03-30T10:14:42;100555.16;;;12.49;99.42
25238;BME280;13185;50.872;5.306;2023-03-30T10:17:17;100533.19;;;12.66;97.88
25238;BME280;13185;50.872;5.306;2023-03-30T10:19:45;100534.78;;;12.80;98.71
25238;BME280;13185;50.872;5.306;2023-03-30T10:22:18;100530.63;;;12.87;95.71
25238;BME280;13185;50.872;5.306;2023-03-30T10:24:54;100541.41;;;12.87;95.17
25238;BME280;13185;50.872;5.306;2023-03-30T10:27:32;100551.31;;;12.87;94.90
25238;BME280;13185;50.872;5.306;2023-03-30T10:30:07;100559.38;;;12.87;94.27
25238;BME280;13185;50.872;5.306;2023-03-30T10:32:34;100547.88;;;12.85;94.53
25238;BME280;13185;50.872;5.306;2023-03-30T10:35:00;100560.38;;;12.86;95.14
25238;BME280;13185;50.872;5.306;2023-03-30T10:37:37;100554.47;;;12.92;95.70
25238;BME280;13185;50.872;5.306;2023-03-30T10:42:40;100551.06;;;13.01;93.18
25238;BME280;13185;50.872;5.306;2023-03-30T10:45:12;100552.16;;;12.98;93.34
25238;BME280;13185;50.872;5.306;2023-03-30T11:01:28;100570.81;;;12.44;100.00
25238;BME280;13185;50.872;5.306;2023-03-30T11:04:04;100591.72;;;12.17;100.00
25238;BME280;13185;50.872;5.306;2023-03-30T11:06:39;100585.63;;;11.91;100.00
25238;BME280;13185;50.872;5.306;2023-03-30T11:09:10;100575.47;;;11.70;100.00
25238;BME280;13185;50.872;5.306;2023-03-30T11:11:44;100587.44;;;11.53;100.00
25238;BME280;13185;50.872;5.306;2023-03-30T11:14:25;100581.69;;;11.47;100.00
25238;BME280;13185;50.872;5.306;2023-03-30T11:17:01;100573.22;;;11.40;100.00
25238;BME280;13185;50.872;5.306;2023-03-30T11:19:54;100583.41;;;11.35;100.00
25238;BME280;13185;50.872;5.306;2023-03-30T11:24:53;100579.66;;;11.25;100.00
25238;BME280;13185;50.872;5.306;2023-03-30T11:27:28;100571.97;;;11.20;100.00
25238;BME280;13185;50.872;5.306;2023-03-30T11:30:10;100582.94;;;11.17;100.00
25238;BME280;13185;50.872;5.306;2023-03-30T11:33:00;100577.47;;;11.06;100.00
25238;BME280;13185;50.872;5.306;2023-03-30T11:35:44;100565.31;;;11.13;100.00
25238;BME280;13185;50.872;5.306;2023-03-30T11:38:15;100564.25;;;11.16;100.00
25238;BME280;13185;50.872;5.306;2023-03-30T11:40:47;100557.03;;;11.29;100.00
25238;BME280;13185;50.872;5.306;2023-03-30T11:43:16;100570.94;;;11.47;100.00
25238;BME280;13185;50.872;5.306;2023-03-30T11:56:49;100561.16;;;11.82;100.00
25238;BME280;13185;50.872;5.306;2023-03-30T12:05:20;100573.66;;;11.95;100.00
25238;BME280;13185;50.872;5.306;2023-03-30T12:12:59;100580.59;;;12.10;100.00
25238;BME280;13185;50.872;5.306;2023-03-30T12:15:52;100572.16;;;12.14;100.00
25238;BME280;13185;50.872;5.306;2023-03-30T12:18:37;100568.50;;;12.16;100.00
25238;BME280;13185;50.872;5.306;2023-03-30T12:26:47;100550.72;;;12.37;100.00
25238;BME280;13185;50.872;5.306;2023-03-30T12:29:14;100566.41;;;12.43;100.00
25238;BME280;13185;50.872;5.306;2023-03-30T12:34:39;100561.31;;;12.62;100.00
25238;BME280;13185;50.872;5.306;2023-03-30T12:39:42;100556.81;;;12.85;100.00
25238;BME280;13185;50.872;5.306;2023-03-30T12:42:30;100544.09;;;12.98;99.53
25238;BME280;13185;50.872;5.306;2023-03-30T12:45:34;100541.63;;;13.18;100.00
25238;BME280;13185;50.872;5.306;2023-03-30T12:51:06;100549.59;;;13.42;93.14
25238;BME280;13185;50.872;5.306;2023-03-30T12:53:56;100547.13;;;13.50;89.57
25238;BME280;13185;50.872;5.306;2023-03-30T12:59:28;100524.88;;;13.80;89.28
25238;BME280;13185;50.872;5.306;2023-03-30T13:04:42;100525.50;;;14.04;83.14
25238;BME280;13185;50.872;5.306;2023-03-30T13:07:21;100525.72;;;14.12;82.45
25238;BME280;13185;50.872;5.306;2023-03-30T13:09:57;100531.91;;;14.24;81.25
25238;BME280;13185;50.872;5.306;2023-03-30T13:14:59;100535.22;;;14.28;80.43
25238;BME280;13185;50.872;5.306;2023-03-30T13:17:25;100520.41;;;14.22;78.72
25238;BME280;13185;50.872;5.306;2023-03-30T13:22:36;100515.28;;;14.40;77.19
25238;BME280;13185;50.872;5.306;2023-03-30T13:27:42;100517.22;;;14.49;72.18
25238;BME280;13185;50.872;5.306;2023-03-30T13:44:04;100503.47;;;14.83;72.88
25238;BME280;13185;50.872;5.306;2023-03-30T13:46:53;100515.13;;;14.83;73.60
25238;BME280;13185;50.872;5.306;2023-03-30T13:52:13;100504.50;;;14.91;74.79
25238;BME280;13185;50.872;5.306;2023-03-30T13:54:40;100493.50;;;15.14;74.03
25238;BME280;13185;50.872;5.306;2023-03-30T13:57:10;100497.38;;;15.30;75.35
25238;BME280;13185;50.872;5.306;2023-03-30T13:59:40;100483.66;;;15.63;75.40
25238;BME280;13185;50.872;5.306;2023-03-30T14:02:15;100493.50;;;15.93;74.05
25238;BME280;13185;50.872;5.306;2023-03-30T14:04:42;100491.78;;;16.01;73.77
25238;BME280;13185;50.872;5.306;2023-03-30T14:07:19;100488.94;;;16.03;72.70
25238;BME280;13185;50.872;5.306;2023-03-30T14:10:06;100479.13;;;15.92;73.53
25238;BME280;13185;50.872;5.306;2023-03-30T14:12:33;100486.13;;;15.95;74.00
25238;BME280;13185;50.872;5.306;2023-03-30T14:14:59;100503.47;;;15.92;74.25
25238;BME280;13185;50.872;5.306;2023-03-30T14:17:26;100499.34;;;16.07;73.94
25238;BME280;13185;50.872;5.306;2023-03-30T14:22:46;100498.19;;;16.20;75.22
25238;BME280;13185;50.872;5.306;2023-03-30T14:27:50;100523.84;;;15.96;74.20
25238;BME280;13185;50.872;5.306;2023-03-30T14:30:21;100511.44;;;15.84;74.04
25238;BME280;13185;50.872;5.306;2023-03-30T14:33:07;100514.72;;;15.78;73.34
25238;BME280;13185;50.872;5.306;2023-03-30T14:35:38;100509.00;;;15.71;74.58
25238;BME280;13185;50.872;5.306;2023-03-30T14:38:05;100499.16;;;15.61;73.08
25238;BME280;13185;50.872;5.306;2023-03-30T14:40:31;100511.56;;;15.63;74.04
25238;BME280;13185;50.872;5.306;2023-03-30T14:43:01;100494.91;;;15.68;73.72
25238;BME280;13185;50.872;5.306;2023-03-30T14:45:28;100493.06;;;15.78;73.51
25238;BME280;13185;50.872;5.306;2023-03-30T14:47:54;100494.34;;;15.83;72.02
25238;BME280;13185;50.872;5.306;2023-03-30T14:50:21;100497.34;;;15.90;72.45
25238;BME280;13185;50.872;5.306;2023-03-30T14:52:47;100503.75;;;15.99;69.89
25238;BME280;13185;50.872;5.306;2023-03-30T14:55:17;100502.34;;;15.95;66.95
25238;BME280;13185;50.872;5.306;2023-03-30T14:57:46;100481.97;;;16.00;67.71
25238;BME280;13185;50.872;5.306;2023-03-30T15:00:14;100514.97;;;15.94;66.40
25238;BME280;13185;50.872;5.306;2023-03-30T15:02:58;100492.50;;;16.13;68.71
25238;BME280;13185;50.872;5.306;2023-03-30T15:05:29;100500.44;;;16.24;68.04
25238;BME280;13185;50.872;5.306;2023-03-30T15:07:56;100508.16;;;16.29;66.70
25238;BME280;13185;50.872;5.306;2023-03-30T15:10:34;100502.16;;;16.25;66.10
25238;BME280;13185;50.872;5.306;2023-03-30T15:13:04;100502.91;;;16.17;67.30
25238;BME280;13185;50.872;5.306;2023-03-30T15:15:31;100512.88;;;15.98;67.18
25238;BME280;13185;50.872;5.306;2023-03-30T15:17:58;100507.28;;;15.70;67.50
25238;BME280;13185;50.872;5.306;2023-03-30T15:20:26;100512.38;;;15.54;68.91
25238;BME280;13185;50.872;5.306;2023-03-30T15:22:53;100505.53;;;15.50;69.11
25238;BME280;13185;50.872;5.306;2023-03-30T15:25:22;100494.16;;;15.46;70.42
25238;BME280;13185;50.872;5.306;2023-03-30T15:27:56;100487.19;;;15.44;69.57
25238;BME280;13185;50.872;5.306;2023-03-30T15:30:40;100498.22;;;15.31;70.57
25238;BME280;13185;50.872;5.306;2023-03-30T15:35:49;100509.63;;;15.35;71.19
25238;BME280;13185;50.872;5.306;2023-03-30T15:38:17;100491.59;;;15.45;71.50
25238;BME280;13185;50.872;5.306;2023-03-30T15:40:45;100493.06;;;15.78;71.89
25238;BME280;13185;50.872;5.306;2023-03-30T15:43:22;100542.34;;;16.10;71.30
25238;BME280;13185;50.872;5.306;2023-03-30T15:45:55;100503.31;;;16.13;69.65
25238;BME280;13185;50.872;5.306;2023-03-30T15:48:35;100490.38;;;16.07;69.15
25238;BME280;13185;50.872;5.306;2023-03-30T15:54:02;100493.94;;;16.17;69.00
25238;BME280;13185;50.872;5.306;2023-03-30T15:58:57;100490.63;;;16.13;69.60
25238;BME280;13185;50.872;5.306;2023-03-30T16:01:42;100497.06;;;16.03;69.76
25238;BME280;13185;50.872;5.306;2023-03-30T16:04:12;100501.47;;;15.94;70.33